Date,TemperatureHighF,TemperatureAvgF,TemperatureLowF,DewpointHighF,DewpointAvgF,DewpointLowF,HumidityHigh,HumidityAvg,HumidityLow,PressureMaxIn,PressureMinIn,WindSpeedMaxMPH,WindSpeedAvgMPH,GustSpeedMaxMPH,PrecipitationSumIn
2013-1-1,31.0,14.7,8.0,10.0,4.1,-2.0,79,63,34,0.00,40.00,11,6,34,0.00
2013-1-2,32.0,12.2,6.0,0.0,-5.8,-16.0,73,47,20,0.00,40.00,10,5,21,0.00
2013-1-3,50.0,29.7,17.0,6.0,-6.8,-36.0,32,21,5,0.00,40.00,8,4,14,0.04
2013-1-4,43.0,31.4,23.0,5.0,-1.3,-10.0,41,25,11,0.00,40.00,16,7,27,0.02
2013-1-5,35.0,26.3,18.0,4.0,-0.3,-18.0,53,32,10,0.00,40.00,17,9,30,0.00
2013-1-6,38.0,30.2,23.0,19.0,9.4,-24.0,59,44,7,0.00,40.00,27,15,42,0.00
2013-1-7,30.0,24.0,21.0,16.0,12.3,10.0,72,61,47,0.00,40.00,26,16,47,0.00
2013-1-8,29.0,24.8,21.0,18.0,11.6,7.0,76,57,38,0.00,40.00,25,16,50,0.00
2013-1-9,42.0,33.7,26.0,18.0,11.3,2.0,70,42,23,0.00,40.00,30,16,54,0.00
2013-1-10,39.0,28.3,8.0,19.0,12.5,5.0,93,56,28,0.00,40.00,18,6,34,0.00
2013-1-11,8.0,-1.8,-8.0,5.0,-6.1,-12.0,86,81,72,0.00,40.00,3,1,10,0.00
2013-1-12,17.0,-3.3,-10.0,2.0,-8.5,-14.0,84,78,49,0.00,40.00,3,1,7,0.00
2013-1-13,12.0,-3.9,-8.0,6.0,-9.1,-12.0,82,78,52,0.00,40.00,11,2,18,0.01
2013-1-14,9.0,1.3,-6.0,1.0,-7.1,-14.0,78,67,50,0.00,40.00,14,10,29,0.01
2013-1-15,32.0,20.3,11.0,19.0,10.6,3.0,71,66,55,0.00,40.00,17,14,36,0.04
2013-1-16,36.0,29.6,26.0,13.0,7.4,4.0,56,39,28,0.00,40.00,27,17,48,0.01
2013-1-17,44.0,30.8,27.0,9.0,5.1,0.0,44,34,20,0.00,40.00,22,12,42,0.02
2013-1-18,39.0,32.5,26.0,6.0,3.9,-1.0,40,29,21,0.00,40.00,27,12,53,0.01
2013-1-19,39.0,29.0,26.0,7.0,2.3,-7.0,42,32,18,0.00,40.00,23,12,43,0.00
2013-1-20,37.0,26.9,19.0,10.0,7.0,3.0,59,43,31,0.00,40.00,20,9,41,0.00
2013-1-21,39.0,30.3,25.0,12.0,4.8,-4.0,54,35,18,0.00,40.00,21,14,43,0.00
2013-1-22,49.0,33.7,28.0,-1.0,-5.2,-11.0,28,19,8,0.00,40.00,22,12,41,0.00
2013-1-23,44.0,36.3,32.0,0.0,-4.7,-11.0,22,17,10,0.00,40.00,21,16,38,0.00
2013-1-24,37.0,32.4,27.0,21.0,14.8,-2.0,71,50,21,0.00,40.00,34,22,58,0.00
2013-1-25,37.0,30.3,26.0,22.0,18.8,15.0,70,62,51,0.00,40.00,29,19,47,0.00
2013-1-26,42.0,33.3,30.0,25.0,21.6,20.0,69,62,49,0.00,40.00,28,11,47,0.00
2013-1-27,32.0,23.9,12.0,25.0,19.1,9.0,91,82,63,0.00,40.00,11,4,24,0.00
2013-1-28,21.0,12.3,6.0,15.0,7.5,-2.0,90,82,65,0.00,40.00,17,4,27,0.00
2013-1-29,16.0,8.8,5.0,9.0,1.8,-3.0,82,73,64,0.00,40.00,18,6,30,0.00
2013-1-30,29.0,19.6,7.0,14.0,9.3,2.0,78,64,52,0.00,40.00,27,15,53,0.00
2013-1-31,33.0,25.3,22.0,17.0,14.9,11.0,77,64,48,0.00,40.00,12,9,26,0.03
2013-2-1,34.0,24.2,20.0,19.0,15.2,8.0,85,69,40,0.00,40.00,15,9,30,0.05
2013-2-2,36.0,26.0,21.0,18.0,10.7,4.0,67,52,42,0.00,40.00,24,11,39,0.01
2013-2-3,45.0,29.2,25.0,11.0,7.2,1.0,52,40,24,0.00,40.00,20,10,32,0.03
2013-2-4,37.0,26.4,23.0,18.0,13.1,8.0,68,57,43,0.00,40.00,20,11,38,0.02
2013-2-5,42.0,28.7,24.0,22.0,15.2,7.0,85,59,35,0.00,40.00,25,12,41,0.00
2013-2-6,34.0,24.9,16.0,16.0,10.9,7.0,77,56,33,0.00,40.00,19,9,37,0.00
2013-2-7,42.0,23.8,15.0,7.0,0.1,-7.0,68,39,17,0.00,40.00,19,11,32,0.00
2013-2-8,39.0,23.2,14.0,12.0,3.7,-8.0,92,47,23,0.00,40.00,14,5,21,0.00
2013-2-9,25.0,17.5,14.0,19.0,14.7,12.0,92,88,71,0.00,40.00,7,4,18,0.00
2013-2-10,23.0,11.5,2.0,21.0,8.5,-2.0,91,87,80,0.00,40.00,7,3,17,0.00
2013-2-11,27.0,11.0,1.0,10.0,-0.1,-9.0,80,62,36,0.00,40.00,15,8,25,0.09
2013-2-12,34.0,21.0,15.0,15.0,9.3,4.0,67,60,45,0.00,40.00,29,16,48,0.02
2013-2-13,33.0,24.0,20.0,16.0,13.0,9.0,81,64,37,0.00,40.00,33,13,53,0.01
2013-2-14,23.0,16.2,9.0,15.0,11.4,6.0,90,81,67,0.00,40.00,6,2,17,0.05
2013-2-15,35.0,22.8,12.0,15.0,12.3,9.0,91,66,39,0.00,40.00,23,10,43,0.06
2013-2-16,36.0,29.5,23.0,18.0,15.0,9.0,72,55,41,0.00,40.00,25,17,50,0.01
2013-2-17,32.0,23.4,14.0,21.0,9.8,0.0,92,57,31,0.00,40.00,19,12,41,0.00
2013-2-18,32.0,16.4,11.0,11.0,3.4,-5.0,81,57,34,0.00,40.00,12,6,24,0.01
2013-2-19,41.0,25.4,16.0,10.0,0.6,-18.0,57,36,14,0.00,40.00,12,6,21,0.01
2013-2-20,36.0,20.7,11.0,18.0,11.0,8.0,90,68,39,0.00,40.00,6,2,10,0.00
2013-2-21,33.0,15.5,7.0,20.0,11.9,4.0,91,85,51,0.00,40.00,10,2,16,0.05
2013-2-22,31.0,15.3,7.0,10.0,5.1,2.0,86,65,31,0.00,40.00,21,13,37,0.01
2013-2-23,29.0,19.1,9.0,19.0,11.9,6.0,90,74,58,0.00,40.00,18,7,29,0.01
2013-2-24,34.0,17.0,7.0,18.0,7.6,3.0,90,68,43,0.00,40.00,18,5,27,0.20
2013-2-25,34.0,21.0,15.0,13.0,7.8,3.0,66,57,40,0.00,40.00,17,11,28,0.01
2013-2-26,34.0,16.7,10.0,9.0,4.1,0.0,85,59,28,0.00,40.00,13,6,26,0.01
2013-2-27,35.0,15.7,8.0,7.0,3.7,0.0,78,60,31,0.00,40.00,17,10,28,0.01
2013-2-28,33.0,21.8,14.0,10.0,4.5,-3.0,62,47,37,0.00,40.00,21,11,32,0.00
2013-3-1,39.0,30.8,23.0,23.0,18.6,5.0,79,61,42,0.00,40.00,19,13,38,0.00
2013-3-2,50.0,36.1,31.0,25.0,18.0,11.0,66,48,32,0.00,40.00,20,14,37,0.00
2013-3-3,39.0,30.9,14.0,28.0,19.0,-4.0,90,62,43,0.00,40.00,21,15,46,0.00
2013-3-4,26.0,11.4,1.0,10.0,0.2,-6.0,88,61,44,0.00,40.00,18,6,33,0.00
2013-3-5,34.0,20.0,6.0,8.0,1.4,-6.0,82,46,24,0.00,40.00,16,7,28,0.00
2013-3-6,43.0,31.2,21.0,25.0,13.7,5.0,92,50,29,0.00,40.00,22,8,38,0.00
2013-3-7,41.0,27.2,20.0,16.0,7.0,-6.0,69,45,16,0.00,40.00,25,10,50,0.00
2013-3-8,43.0,26.7,21.0,23.0,17.7,12.0,95,70,36,0.00,40.00,5,2,10,0.00
2013-3-9,37.0,22.9,13.0,21.0,14.7,2.0,95,73,39,0.00,40.00,9,3,16,0.01
2013-3-10,51.0,32.0,21.0,12.0,6.5,-3.0,53,35,18,0.00,40.00,12,7,23,0.01
2013-3-11,34.0,24.9,12.0,18.0,14.3,9.0,92,66,39,0.00,40.00,13,6,35,0.00
2013-3-12,48.0,22.9,11.0,22.0,12.3,5.0,89,66,34,0.00,40.00,12,6,23,0.03
2013-3-13,51.0,37.5,31.0,24.0,21.5,17.0,73,54,30,0.00,40.00,19,11,38,0.01
2013-3-14,55.0,42.7,35.0,24.0,19.2,10.0,60,41,24,0.00,40.00,22,12,41,0.00
2013-3-15,53.0,42.0,28.0,24.0,14.2,9.0,83,34,19,0.00,40.00,23,13,41,0.00
2013-3-16,47.0,31.9,26.0,28.0,19.1,6.0,93,65,25,0.00,40.00,29,6,47,0.01
2013-3-17,31.0,22.8,12.0,22.0,10.6,-1.0,83,60,34,0.00,40.00,29,14,49,0.01
2013-3-18,25.0,15.3,6.0,10.0,1.8,-6.0,79,56,35,0.00,40.00,17,8,37,0.00
2013-3-19,36.0,20.8,12.0,10.0,3.8,-4.0,90,51,23,0.00,40.00,14,7,29,0.00
2013-3-20,41.0,30.9,21.0,23.0,9.7,-14.0,65,43,17,0.00,40.00,23,15,45,0.00
2013-3-21,33.0,25.1,13.0,27.0,16.8,-1.0,95,72,35,0.00,40.00,20,7,33,0.09
2013-3-22,24.0,12.0,5.0,11.0,4.3,-5.0,89,72,28,0.00,40.00,8,4,16,0.01
2013-3-23,18.0,8.1,-1.0,13.0,3.8,-5.0,87,82,70,0.00,40.00,4,1,8,0.01
2013-3-24,25.0,9.8,-2.0,10.0,2.4,-6.0,87,72,45,0.00,40.00,9,3,19,0.03
2013-3-25,37.0,19.1,5.0,9.0,3.2,-3.0,78,53,27,0.00,40.00,13,4,23,0.34
2013-3-26,40.0,26.8,18.0,17.0,9.3,-1.0,71,48,36,0.00,40.00,16,7,25,0.07
2013-3-27,50.0,31.8,22.0,19.0,15.9,13.0,82,55,25,0.00,40.00,10,6,16,0.00
2013-3-28,51.0,43.6,34.0,21.0,16.5,13.0,48,34,25,0.00,40.00,11,6,19,0.00
2013-3-29,49.0,35.9,32.0,31.0,21.5,7.0,93,58,35,0.00,40.00,12,6,23,0.01
2013-3-30,45.0,35.1,28.0,31.0,25.0,-99.9,98,73,40,0.00,40.00,11,3,19,0.16
2013-3-31,51.0,37.7,23.0,24.0,19.8,13.0,87,50,34,0.00,40.00,13,6,22,0.03
2013-4-1,46.0,32.4,21.0,25.0,21.3,18.0,91,66,43,0.00,40.00,6,2,13,0.00
2013-4-2,50.0,38.4,27.0,23.0,18.2,13.0,74,47,26,0.00,40.00,10,4,17,0.00
2013-4-3,52.0,40.6,35.0,32.0,23.5,13.0,73,52,31,0.00,40.00,13,6,23,0.00
2013-4-4,55.0,42.8,35.0,28.0,24.9,21.0,67,51,29,0.00,40.00,14,10,27,0.00
2013-4-5,45.0,38.8,32.0,31.0,25.7,19.0,83,61,41,0.00,40.00,25,14,46,0.00
2013-4-6,43.0,34.3,30.0,30.0,25.3,21.0,95,71,46,0.00,40.00,17,11,28,0.00
2013-4-7,41.0,33.0,28.0,29.0,22.6,19.0,95,66,46,0.00,40.00,28,12,48,0.00
2013-4-8,28.0,14.6,2.0,25.0,10.9,-2.0,94,85,68,0.00,40.00,8,3,18,0.00
2013-4-9,32.0,7.5,0.0,21.0,1.4,-4.0,87,77,41,0.00,40.00,5,2,12,0.13
2013-4-10,43.0,25.6,8.0,26.0,15.5,2.0,90,68,34,0.00,40.00,13,5,23,0.01
2013-4-11,41.0,33.2,26.0,26.0,23.8,19.0,96,69,52,0.00,40.00,14,4,27,0.00
2013-4-12,36.0,27.5,19.0,25.0,19.6,12.0,96,74,46,0.00,40.00,12,4,25,0.10
2013-4-13,44.0,30.8,18.0,30.0,20.9,7.0,94,69,35,0.00,40.00,34,15,68,0.08
2013-4-14,34.0,20.1,13.0,19.0,9.0,2.0,91,64,36,0.00,40.00,21,10,34,0.25
2013-4-15,28.0,13.4,8.0,17.0,9.0,5.0,90,84,55,0.00,40.00,3,1,9,0.14
2013-4-16,20.0,11.1,6.0,12.0,6.9,3.0,88,83,66,0.00,40.00,5,2,12,0.01
2013-4-17,26.0,12.8,3.0,12.0,6.0,0.0,88,75,50,0.00,40.00,7,2,14,0.07
2013-4-18,44.0,21.2,8.0,19.0,8.6,0.0,77,60,32,0.00,40.00,12,7,21,0.22
2013-4-19,47.0,30.0,22.0,25.0,18.7,13.0,83,63,35,0.00,40.00,14,8,25,0.04
2013-4-20,47.0,33.5,28.0,26.0,21.9,17.0,81,63,38,0.00,40.00,12,7,31,0.01
2013-4-21,45.0,28.0,12.0,26.0,19.8,9.0,90,73,31,0.00,40.00,8,5,26,0.01
2013-4-22,30.0,11.7,4.0,19.0,6.9,-1.0,89,82,51,0.00,40.00,8,4,17,0.11
2013-4-23,38.0,18.4,4.0,15.0,7.6,-2.0,86,65,37,0.00,40.00,7,3,17,0.26
2013-4-24,45.0,28.4,14.0,16.0,12.1,9.0,90,55,27,0.00,40.00,17,7,28,0.06
2013-4-25,53.0,38.6,31.0,14.0,10.4,6.0,41,32,17,0.00,40.00,20,12,36,0.00
2013-4-26,61.0,42.9,31.0,18.0,14.1,9.0,56,33,13,0.00,40.00,13,6,22,0.00
2013-4-27,58.0,47.4,40.0,23.0,18.5,15.0,42,32,20,0.00,40.00,22,16,44,0.00
2013-4-28,48.0,42.1,34.0,32.0,23.8,16.0,89,50,32,0.00,40.00,22,9,44,0.00
2013-4-29,46.0,38.5,28.0,31.0,23.3,14.0,97,57,32,0.00,40.00,25,16,45,0.00
2013-4-30,30.0,23.6,17.0,27.0,20.4,15.0,96,87,73,0.00,40.00,5,2,15,0.10
2013-5-1,39.0,20.6,14.0,21.0,14.5,12.0,92,79,40,0.00,40.00,7,3,13,0.45
2013-5-2,51.0,31.3,14.0,17.0,11.4,8.0,84,49,20,0.00,40.00,14,6,24,0.06
2013-5-3,52.0,38.3,31.0,31.0,17.9,7.0,97,48,21,0.00,40.00,13,6,24,0.00
2013-5-4,37.0,32.0,29.0,33.0,30.8,29.0,98,95,85,0.00,40.00,5,3,11,0.21
2013-5-5,51.0,36.6,30.0,36.0,31.3,27.0,98,82,49,0.00,40.00,5,2,11,0.74
2013-5-6,58.0,43.2,32.0,35.0,28.1,25.0,83,58,33,0.00,40.00,7,3,13,0.06
2013-5-7,64.0,47.8,36.0,29.0,25.4,21.0,64,44,21,0.00,40.00,9,6,24,0.00
2013-5-8,58.0,46.1,36.0,35.0,29.3,26.0,79,54,33,0.00,40.00,6,4,24,0.00
2013-5-9,58.0,45.3,37.0,34.0,28.4,23.0,68,53,32,0.00,40.00,8,3,23,0.00
2013-5-10,62.0,45.3,34.0,38.0,27.0,-99.9,78,54,27,0.00,40.00,7,4,25,0.00
2013-5-11,59.0,46.8,32.0,34.0,27.7,-99.9,81,51,30,0.00,40.00,8,3,17,0.00
2013-5-12,69.0,57.0,47.0,35.0,30.2,27.0,47,37,27,0.00,40.00,15,10,26,0.00
2013-5-13,69.0,60.3,53.0,31.0,29.0,26.0,40,31,22,0.00,40.00,21,13,45,0.00
2013-5-14,68.0,58.8,46.0,32.0,22.3,15.0,58,25,14,0.00,40.00,17,11,36,0.00
2013-5-15,61.0,49.9,32.0,37.0,30.0,22.0,84,50,30,0.00,40.00,8,3,16,0.01
2013-5-16,55.0,43.0,39.0,43.0,25.5,-99.9,90,74,49,0.00,40.00,12,5,27,0.12
2013-5-17,49.0,41.4,37.0,43.0,34.9,-99.9,97,86,66,0.00,40.00,11,5,22,0.39
2013-5-18,43.0,37.2,32.0,41.0,35.2,30.0,98,93,72,0.00,40.00,7,3,17,0.83
2013-5-19,41.0,35.9,33.0,40.0,35.1,32.0,98,98,96,0.00,40.00,5,3,15,0.60
2013-5-20,54.0,36.7,32.0,42.0,34.3,29.0,98,92,58,0.00,40.00,9,5,23,0.41
2013-5-21,55.0,42.1,30.0,33.0,28.8,23.0,93,62,43,0.00,40.00,6,2,12,0.01
2013-5-22,51.0,42.2,33.0,41.0,33.7,24.0,95,72,52,0.00,40.00,12,3,27,0.50
2013-5-23,53.0,44.1,39.0,48.0,40.8,31.0,98,89,63,0.00,40.00,14,6,28,0.55
2013-5-24,56.0,45.0,33.0,34.0,18.9,10.0,72,39,19,0.00,40.00,15,9,31,0.03
2013-5-25,61.0,48.4,38.0,38.0,21.8,7.0,74,37,14,0.00,40.00,9,4,17,0.00
2013-5-26,58.0,48.6,39.0,46.0,32.7,19.0,67,54,40,0.00,40.00,8,3,22,0.02
2013-5-27,56.0,43.9,36.0,37.0,29.2,22.0,92,60,33,0.00,40.00,18,9,39,0.07
2013-5-28,55.0,44.4,37.0,39.0,31.2,22.0,93,61,43,0.00,40.00,9,4,22,0.01
2013-5-29,41.0,37.6,34.0,40.0,36.3,32.0,98,96,90,0.00,40.00,8,3,17,0.47
2013-5-30,50.0,39.9,34.0,34.0,29.9,22.0,91,69,49,0.00,40.00,17,9,42,0.01
2013-5-31,47.0,39.2,34.0,31.0,24.3,19.0,78,55,47,0.00,40.00,23,17,45,0.00
2013-6-1,52.0,41.3,33.0,36.0,32.9,28.0,94,73,55,0.00,40.00,14,3,23,0.00
2013-6-2,64.0,51.9,40.0,41.0,34.2,26.0,80,53,33,0.00,40.00,16,6,37,0.02
2013-6-3,52.0,42.5,35.0,39.0,29.0,21.0,82,61,36,0.00,40.00,20,11,41,0.07
2013-6-4,39.0,34.0,32.0,38.0,31.9,24.0,98,93,62,0.00,40.00,7,2,17,0.04
2013-6-5,58.0,43.0,28.0,37.0,32.9,27.0,98,71,42,0.00,40.00,5,3,14,0.01
2013-6-6,65.0,52.7,41.0,41.0,36.5,28.0,72,55,40,0.00,40.00,11,4,16,0.00
2013-6-7,69.0,56.5,46.0,42.0,36.4,32.0,71,48,26,0.00,40.00,14,7,28,0.03
2013-6-8,66.0,53.0,42.0,42.0,33.2,26.0,85,49,27,0.00,40.00,8,4,21,0.03
2013-6-9,77.0,59.7,44.0,38.0,32.2,29.0,55,37,20,0.00,40.00,22,8,43,0.00
2013-6-10,69.0,60.2,44.0,46.0,39.3,29.0,92,49,28,0.00,40.00,12,4,38,0.00
2013-6-11,68.0,55.3,44.0,48.0,39.8,30.0,92,60,28,0.00,40.00,17,4,38,0.01
2013-6-12,62.0,52.1,43.0,47.0,39.0,35.0,96,63,36,0.00,40.00,14,6,26,0.01
2013-6-13,71.0,54.8,42.0,48.0,37.3,27.0,95,56,20,0.00,40.00,25,5,48,0.27
2013-6-14,52.0,44.5,38.0,33.0,20.7,14.0,70,41,23,0.00,40.00,25,15,48,0.17
2013-6-15,63.0,49.8,37.0,28.0,22.2,19.0,55,36,19,0.00,40.00,20,7,36,0.00
2013-6-16,65.0,53.6,43.0,41.0,28.7,11.0,82,40,22,0.00,40.00,10,4,15,0.00
2013-6-17,67.0,53.9,43.0,42.0,37.4,31.0,80,55,39,0.00,40.00,8,3,15,0.00
2013-6-18,71.0,60.0,53.0,37.0,31.2,25.0,46,35,22,0.00,40.00,17,7,30,0.00
2013-6-19,73.0,59.1,42.0,38.0,28.7,13.0,44,33,11,0.00,40.00,26,11,54,0.00
2013-6-20,60.0,43.4,34.0,19.0,15.0,9.0,47,34,14,0.00,40.00,26,13,54,0.00
2013-6-22,55.0,47.9,38.0,45.0,38.2,27.0,86,70,37,0.00,40.00,15,5,31,0.03
2013-6-23,68.0,51.5,38.0,34.0,30.2,17.0,76,48,14,0.00,40.00,13,7,27,0.03
2013-6-24,70.0,57.5,48.0,38.0,28.1,21.0,51,33,21,0.00,40.00,15,6,33,1.16
2013-6-25,65.0,53.8,47.0,39.0,34.5,30.0,64,49,30,0.00,40.00,22,14,40,0.47
2013-6-26,68.0,59.4,50.0,42.0,37.5,31.0,69,46,27,0.00,40.00,23,15,40,0.00
2013-6-27,79.0,64.6,54.0,47.0,39.0,26.0,73,42,14,0.00,40.00,13,6,32,0.00
2013-6-28,79.0,63.6,51.0,48.0,44.9,42.0,73,53,29,0.00,40.00,5,2,13,0.00
2013-6-29,76.0,62.6,50.0,50.0,46.5,43.0,89,58,37,0.00,40.00,6,3,14,0.02
2013-6-30,79.0,61.7,50.0,50.0,46.3,41.0,90,60,30,0.00,40.00,15,5,24,0.02
2013-7-1,79.0,62.5,53.0,52.0,46.2,42.0,84,57,36,0.00,40.00,6,2,18,0.00
2013-7-2,82.0,64.8,53.0,47.0,42.1,32.0,73,48,23,0.00,40.00,5,3,14,0.00
2013-7-3,82.0,71.3,62.0,45.0,37.6,32.0,44,30,22,0.00,40.00,12,6,23,0.00
2013-7-4,74.0,62.0,51.0,55.0,45.5,36.0,95,57,41,0.00,40.00,8,4,18,0.18
2013-7-5,68.0,57.2,51.0,55.0,47.5,42.0,93,71,53,0.00,40.00,21,8,34,0.23
2013-7-6,64.0,55.2,45.0,50.0,42.8,37.0,92,64,42,0.00,40.00,20,10,38,0.21
2013-7-7,70.0,57.7,45.0,51.0,43.2,37.0,87,60,41,0.00,40.00,19,7,28,0.18
2013-7-8,75.0,63.4,53.0,42.0,37.0,26.0,65,40,17,0.00,40.00,20,11,45,0.04
2013-7-9,71.0,59.6,48.0,47.0,43.1,33.0,74,56,37,0.00,40.00,8,3,15,0.00
2013-7-10,75.0,66.1,55.0,44.0,36.6,-99.9,63,36,24,0.00,40.00,9,4,15,0.00
2013-7-11,76.0,66.6,53.0,44.0,30.8,25.0,68,28,17,0.00,40.00,18,8,36,0.00
2013-7-12,74.0,59.7,53.0,43.0,35.7,25.0,68,44,16,0.00,40.00,18,8,35,0.00
2013-7-13,70.0,60.7,46.0,50.0,35.5,27.0,95,42,27,0.00,40.00,10,6,25,0.00
2013-7-14,69.0,57.1,44.0,51.0,45.1,38.0,98,67,38,0.00,40.00,8,4,18,0.04
2013-7-15,83.0,65.8,55.0,44.0,34.0,21.0,64,35,13,0.00,40.00,11,6,21,0.04
2013-7-16,64.0,56.2,52.0,49.0,47.1,44.0,89,73,49,0.00,40.00,13,6,25,0.15
2013-7-17,77.0,61.4,53.0,56.0,49.2,46.0,95,66,36,0.00,40.00,8,3,18,0.20
2013-7-18,79.0,65.5,55.0,51.0,45.1,26.0,80,49,33,0.00,40.00,11,5,17,0.20
2013-7-19,79.0,65.7,53.0,41.0,31.8,21.0,39,28,24,0.00,40.00,8,3,14,0.00
2013-7-20,79.0,61.5,48.0,41.0,33.1,-99.9,56,37,24,0.00,40.00,5,3,14,0.00
2013-7-21,79.0,65.0,54.0,37.0,30.2,21.0,48,30,12,0.00,40.00,7,4,14,0.00
2013-7-22,82.0,64.9,54.0,34.0,24.7,12.0,38,23,7,0.00,40.00,9,5,19,0.00
2013-7-23,78.0,62.4,49.0,40.0,31.2,26.0,62,34,17,0.00,40.00,7,4,16,0.00
2013-7-24,74.0,60.9,51.0,42.0,37.9,32.0,69,45,24,0.00,40.00,9,4,28,0.17
2013-7-25,71.0,59.4,46.0,45.0,40.0,32.0,94,52,32,0.00,40.00,7,3,18,0.17
2013-7-26,73.0,62.6,52.0,50.0,41.1,37.0,67,47,28,0.00,40.00,9,4,17,0.00
2013-7-27,72.0,60.2,53.0,41.0,37.7,33.0,61,44,29,0.00,40.00,13,6,23,0.00
2013-7-28,69.0,54.0,46.0,50.0,43.1,39.0,97,68,35,0.00,40.00,13,5,21,0.22
2013-7-29,64.0,53.3,46.0,51.0,43.6,36.0,97,70,55,0.00,40.00,10,4,19,0.01
2013-7-30,67.0,54.5,48.0,49.0,42.0,37.0,87,64,38,0.00,40.00,21,8,51,0.18
2013-7-31,68.0,56.4,47.0,53.0,42.4,38.0,88,62,37,0.00,40.00,5,3,16,0.10
2013-8-1,77.0,59.0,50.0,49.0,43.1,40.0,88,58,32,0.00,40.00,12,6,20,0.05
2013-8-2,72.0,56.0,46.0,49.0,39.8,16.0,99,64,12,0.00,40.00,11,5,26,0.05
2013-8-3,70.0,55.9,43.0,52.0,44.5,35.0,92,66,47,0.00,40.00,5,2,10,0.02
2013-8-4,72.0,58.0,45.0,51.0,47.1,42.0,100,70,45,0.00,40.00,5,2,16,0.00
2013-8-5,71.0,57.2,47.0,48.0,44.6,41.0,95,66,34,0.00,40.00,6,2,12,0.00
2013-8-6,73.0,58.0,43.0,43.0,37.1,32.0,84,49,28,0.00,40.00,7,3,15,0.00
2013-8-7,79.0,58.9,48.0,41.0,37.6,34.0,71,49,23,0.00,40.00,7,3,17,0.00
2013-8-8,71.0,56.9,46.0,45.0,35.8,29.0,73,47,27,0.00,40.00,11,3,19,0.00
2013-8-9,60.0,52.6,46.0,49.0,43.8,39.0,82,72,60,0.00,40.00,7,2,16,0.03
2013-8-10,71.0,58.5,50.0,43.0,38.2,33.0,76,49,26,0.00,40.00,15,6,23,0.01
2013-8-11,74.0,58.1,51.0,41.0,34.6,31.0,59,42,24,0.00,40.00,15,5,33,0.07
2013-8-12,75.0,60.0,49.0,38.0,32.3,28.0,66,36,18,0.00,40.00,10,4,16,0.01
2013-8-13,72.0,55.5,45.0,43.0,34.9,-99.9,84,50,28,0.00,40.00,20,6,39,0.00
2013-8-14,71.0,58.7,49.0,39.0,32.3,-99.9,59,40,29,0.00,40.00,13,4,21,0.00
2013-8-15,77.0,59.3,51.0,34.0,22.8,-99.9,49,32,20,0.00,40.00,6,3,14,0.00
2013-8-16,88.0,65.9,60.0,28.0,16.9,-99.9,30,18,7,0.00,40.00,10,6,18,0.00
2013-8-17,82.0,67.4,59.0,36.0,21.8,-99.9,40,19,11,0.00,40.00,12,6,27,0.00
2013-8-18,76.0,66.1,58.0,41.0,32.9,22.0,48,30,18,0.00,40.00,12,5,26,0.00
2013-8-19,83.0,66.4,58.0,36.0,22.4,-99.9,37,23,11,0.00,40.00,13,6,26,0.00
2013-8-20,77.0,66.7,59.0,33.0,27.0,-99.9,32,24,15,0.00,40.00,10,5,25,0.00
2013-8-21,74.0,61.3,54.0,43.0,36.4,28.0,66,41,25,0.00,40.00,15,6,22,0.00
2013-8-22,73.0,59.0,52.0,52.0,44.7,41.0,85,61,33,0.00,40.00,12,6,21,0.12
2013-8-23,78.0,61.0,55.0,49.0,41.9,32.0,69,51,21,0.00,40.00,19,8,38,0.13
2013-8-24,66.0,54.4,51.0,47.0,37.5,-99.9,82,56,30,0.00,40.00,13,7,39,0.01
2013-8-25,76.0,60.9,52.0,44.0,37.8,32.0,75,45,23,0.00,40.00,15,8,26,0.04
2013-8-26,73.0,61.8,51.0,47.0,37.8,32.0,87,43,22,0.00,40.00,19,9,36,0.15
2013-8-27,73.0,58.6,54.0,44.0,42.0,39.0,66,55,31,0.00,40.00,16,9,24,0.11
2013-8-28,77.0,67.5,59.0,45.0,39.9,37.0,46,37,24,0.00,40.00,15,11,33,0.13
2013-8-29,75.0,61.4,55.0,51.0,41.2,37.0,72,49,27,0.00,40.00,11,6,33,0.16
2013-8-30,76.0,64.8,57.0,43.0,37.1,31.0,52,37,21,0.00,40.00,20,10,45,0.01
2013-8-31,70.0,58.3,46.0,41.0,34.8,-99.9,78,45,27,0.00,40.00,16,4,25,0.01
2013-9-1,75.0,61.9,49.0,38.0,31.4,24.0,62,36,17,0.00,40.00,8,5,16,0.00
2013-9-2,65.0,60.8,55.0,50.0,37.8,25.0,74,46,25,0.00,40.00,10,6,17,0.04
2013-9-3,73.0,62.5,53.0,49.0,45.7,42.0,84,56,33,0.00,40.00,11,4,23,0.03
2013-9-4,73.0,60.2,51.0,53.0,48.5,44.0,88,68,36,0.00,40.00,14,5,25,0.06
2013-9-5,79.0,64.3,54.0,50.0,45.9,41.0,73,54,27,0.00,40.00,19,4,38,0.13
2013-9-6,77.0,60.4,50.0,50.0,43.4,38.0,92,56,27,0.00,40.00,16,8,30,0.50
2013-9-7,73.0,58.7,52.0,50.0,42.0,-99.9,90,56,29,0.00,40.00,16,7,27,0.20
2013-9-8,62.0,55.7,50.0,50.0,42.6,35.0,97,62,42,0.00,40.00,16,5,32,0.00
2013-9-9,61.0,50.9,44.0,46.0,40.6,35.0,96,69,54,0.00,40.00,10,4,22,0.00
2013-9-10,60.0,51.8,43.0,44.0,39.9,36.0,85,65,51,0.00,40.00,8,3,15,0.00
2013-9-11,70.0,53.8,46.0,40.0,37.9,32.0,76,57,29,0.00,40.00,6,3,17,0.00
2013-9-12,57.0,49.1,44.0,49.0,42.7,38.0,91,79,59,0.00,40.00,9,3,21,0.02
2013-9-13,61.0,51.4,45.0,47.0,42.0,39.0,92,72,45,0.00,40.00,9,2,13,0.01
2013-9-14,49.0,46.0,44.0,48.0,43.2,-99.9,100,92,82,0.00,40.00,7,4,18,1.59
2013-9-15,52.0,48.1,46.0,49.0,47.1,45.0,100,96,86,0.00,40.00,10,4,17,1.54
2013-9-16,71.0,56.6,47.0,47.0,40.5,33.0,94,58,31,0.00,40.00,15,8,27,0.01
2013-9-17,64.0,52.5,42.0,50.0,39.4,33.0,94,63,41,0.00,40.00,18,10,39,0.17
2013-9-18,47.0,41.2,32.0,38.0,33.4,27.0,86,74,65,0.00,40.00,16,9,32,0.20
2013-9-19,48.0,39.1,32.0,36.0,29.5,22.0,90,70,46,0.00,40.00,15,5,28,0.02
2013-9-20,61.0,46.6,33.0,31.0,25.8,16.0,88,48,24,0.00,40.00,12,5,17,0.00
2013-9-21,67.0,57.1,50.0,27.0,20.8,-99.9,35,25,18,0.00,40.00,17,8,28,0.00
2013-9-22,60.0,52.7,45.0,37.0,28.7,21.0,59,40,26,0.00,40.00,15,7,25,0.00
2013-9-23,53.0,44.3,35.0,32.0,26.7,22.0,81,52,33,0.00,40.00,21,9,39,0.00
2013-9-24,62.0,48.1,41.0,32.0,28.0,24.0,58,47,25,0.00,40.00,22,11,40,0.00
2013-9-25,44.0,35.4,31.0,34.0,32.8,28.0,100,91,54,0.00,40.00,21,7,38,0.25
2013-9-26,35.0,29.1,27.0,30.0,26.4,21.0,100,90,67,0.00,40.00,10,5,17,0.09
2013-9-27,36.0,28.4,24.0,32.0,26.7,23.0,100,93,70,0.00,40.00,13,4,23,0.22
2013-9-28,40.0,34.3,28.0,30.0,26.5,-99.9,93,76,64,0.00,40.00,27,19,54,0.44
2013-9-29,48.0,42.6,39.0,32.0,28.4,25.0,69,57,49,0.00,40.00,37,22,63,0.48
2013-9-30,48.0,42.3,39.0,38.0,34.0,25.0,91,73,50,0.00,40.00,25,18,56,0.10
2013-10-1,53.0,44.3,41.0,32.0,29.2,25.0,66,56,33,0.00,40.00,7,4,23,0.04
2013-10-2,43.0,34.1,28.0,32.0,28.3,21.0,100,81,45,0.00,40.00,15,3,33,0.00
2013-10-3,32.0,26.5,20.0,32.0,26.0,19.0,100,98,96,0.00,40.00,12,5,29,0.00
2013-10-4,32.0,21.0,17.0,30.0,19.9,16.0,98,96,92,0.00,40.00,11,5,27,0.00
2013-10-5,44.0,29.6,16.0,29.0,20.7,11.0,96,73,29,0.00,40.00,24,11,42,0.41
2013-10-6,58.0,44.1,39.0,27.0,21.0,17.0,59,41,23,0.00,40.00,24,12,42,0.08
2013-10-7,60.0,53.0,47.0,18.0,12.5,1.0,29,21,12,0.00,40.00,16,11,29,0.00
2013-10-8,52.0,41.8,28.0,28.0,18.7,13.0,100,43,27,0.00,40.00,15,6,30,0.00
2013-10-9,40.0,31.6,26.0,33.0,28.9,26.0,100,90,68,0.00,40.00,10,3,17,0.00
2013-10-10,48.0,37.8,32.0,34.0,28.9,22.0,100,72,40,0.00,40.00,6,2,12,0.00
2013-10-11,42.0,31.7,26.0,33.0,23.9,11.0,100,78,28,0.00,40.00,10,4,21,0.17
2013-10-12,44.0,31.7,26.0,26.0,19.9,-99.9,87,66,33,0.00,40.00,10,5,18,0.02
2013-10-13,35.0,30.0,27.0,31.0,27.9,24.0,100,92,82,0.00,40.00,6,2,15,0.07
2013-10-14,27.0,23.1,21.0,27.0,22.6,20.0,100,98,96,0.00,40.00,8,5,23,0.02
2013-10-15,41.0,25.2,16.0,30.0,20.1,14.0,98,83,57,0.00,40.00,10,4,17,0.38
2013-10-16,43.0,30.0,24.0,26.0,17.0,7.0,100,61,32,0.00,40.00,13,5,22,0.15
2013-10-17,32.0,24.8,21.0,26.0,22.5,20.0,100,91,71,0.00,40.00,11,2,26,0.01
2013-10-18,42.0,27.6,17.0,22.0,15.4,11.0,98,63,32,0.00,40.00,19,8,40,0.15
2013-10-19,45.0,35.9,31.0,22.0,16.7,-99.9,61,48,30,0.00,40.00,22,13,41,0.08
2013-10-20,41.0,30.7,26.0,30.0,26.2,21.0,100,84,61,0.00,40.00,11,3,20,0.10
2013-10-21,54.0,37.9,30.0,26.0,23.0,21.0,68,56,32,0.00,40.00,17,9,30,0.02
2013-10-22,57.0,42.6,34.0,25.0,20.6,15.0,69,45,19,0.00,40.00,16,6,23,0.00
2013-10-23,53.0,39.7,31.0,31.0,24.3,13.0,92,56,31,0.00,40.00,10,3,16,0.00
2013-10-24,51.0,37.7,30.0,34.0,27.8,19.0,92,70,42,0.00,40.00,3,1,6,0.00
2013-10-25,57.0,44.1,36.0,27.0,21.6,15.0,70,43,21,0.00,40.00,10,4,19,0.00
2013-10-26,59.0,42.9,36.0,28.0,17.1,-99.9,70,39,20,0.00,40.00,19,8,30,0.00
2013-10-27,55.0,38.9,27.0,28.0,19.5,14.0,100,48,21,0.00,40.00,22,11,34,0.00
2013-10-28,27.0,19.0,16.0,27.0,16.9,-99.9,100,96,92,0.00,40.00,4,2,15,0.00
2013-10-29,35.0,23.2,17.0,27.0,21.3,16.0,97,92,69,0.00,40.00,7,2,12,0.10
2013-10-30,40.0,29.5,25.0,27.0,23.8,18.0,99,80,59,0.00,40.00,16,8,31,0.01
2013-10-31,39.0,30.5,25.0,25.0,21.4,16.0,85,69,43,0.00,40.00,26,14,46,0.01
2013-11-1,41.0,29.9,25.0,19.0,16.3,13.0,69,57,36,0.00,40.00,14,8,34,0.00
2013-11-2,46.0,35.4,28.0,20.0,13.5,-99.9,69,44,23,0.00,40.00,31,13,51,0.00
2013-11-3,37.0,26.2,15.0,28.0,14.3,5.0,93,62,35,0.00,40.00,17,11,35,0.00
2013-11-4,25.0,16.6,9.0,13.0,6.9,3.0,95,68,40,0.00,40.00,15,8,22,0.00
2013-11-5,28.0,16.9,9.0,11.0,5.9,1.0,80,64,33,0.00,40.00,20,11,40,0.00
2013-11-6,34.0,24.7,19.0,24.0,15.3,10.0,96,68,40,0.00,40.00,19,9,39,0.00
2013-11-7,40.0,32.5,25.0,31.0,26.0,24.0,99,78,55,0.00,40.00,26,15,42,0.00
2013-11-8,37.0,31.0,28.0,31.0,18.3,12.0,99,61,40,0.00,40.00,22,14,45,0.01
2013-11-9,37.0,30.4,26.0,23.0,18.9,-99.9,83,65,53,0.00,40.00,19,8,31,0.01
2013-11-10,48.0,38.9,33.0,27.0,23.3,19.0,64,54,40,0.00,40.00,20,14,38,0.00
2013-11-11,43.0,34.8,29.0,29.0,23.6,19.0,88,64,46,0.00,40.00,15,7,25,0.00
2013-11-12,55.0,43.6,34.0,22.0,14.8,8.0,62,34,18,0.00,40.00,16,11,28,0.00
2013-11-13,46.0,38.4,29.0,29.0,21.4,15.0,80,53,30,0.00,40.00,19,10,34,0.00
2013-11-14,42.0,30.7,27.0,22.0,14.7,9.0,75,52,33,0.00,40.00,17,11,30,0.00
2013-11-15,32.0,26.1,21.0,18.0,13.0,10.0,72,58,40,0.00,40.00,33,17,56,0.00
2013-11-16,29.0,22.3,16.0,19.0,11.3,-99.9,93,66,49,0.00,40.00,33,18,56,0.00
2013-11-17,28.0,19.6,12.0,15.0,10.4,5.0,87,68,50,0.00,40.00,25,15,43,0.00
2013-11-18,40.0,33.4,25.0,16.0,11.5,6.0,64,42,26,0.00,40.00,25,19,47,0.00
2013-11-19,42.0,35.0,32.0,24.0,19.9,10.0,68,54,35,0.00,40.00,32,18,61,0.00
2013-11-20,38.0,24.8,4.0,23.0,17.0,1.0,92,74,52,0.00,40.00,25,12,49,0.00
2013-11-21,22.0,7.3,2.0,7.0,0.7,-11.0,92,76,37,0.00,40.00,10,2,14,0.05
2013-11-22,28.0,18.9,14.0,5.0,-1.6,-13.0,58,41,22,0.00,40.00,9,3,19,0.05
2013-11-23,40.0,26.0,19.0,4.0,-1.2,-99.9,49,32,20,0.00,40.00,10,4,15,0.14
2013-11-24,48.0,31.9,28.0,13.0,0.3,-12.0,46,27,11,0.00,40.00,8,3,15,0.07
2013-11-25,41.0,28.7,23.0,20.0,14.2,8.0,69,55,35,0.00,40.00,9,2,16,0.00
2013-11-26,43.0,32.2,25.0,18.0,14.7,11.0,68,50,32,0.00,40.00,18,7,27,0.00
2013-11-27,47.0,35.4,28.0,17.0,13.1,8.0,62,41,23,0.00,40.00,16,8,28,0.00
2013-11-28,44.0,34.8,27.0,17.0,12.8,9.0,62,42,27,0.00,40.00,13,8,22,0.00
2013-11-29,42.0,34.5,30.0,19.0,15.0,9.0,60,45,33,0.00,40.00,13,10,26,0.00
2013-11-30,38.0,30.2,28.0,24.0,18.2,-99.9,83,64,42,0.00,40.00,22,11,35,0.00
2013-12-1,33.0,29.1,27.0,28.0,24.4,23.0,90,83,67,0.00,40.00,31,18,62,0.00
2013-12-2,35.0,28.9,13.0,28.0,24.2,11.0,96,83,64,0.00,40.00,23,15,49,0.00
2013-12-3,13.0,-2.7,-11.0,11.0,-6.0,-15.0,93,85,81,0.00,40.00,7,3,20,0.00
2013-12-4,0.0,-11.2,-18.0,-3.0,-15.4,-23.0,86,81,77,0.00,40.00,3,1,13,0.00
2013-12-5,3.0,-12.6,-18.0,-2.0,-17.1,-22.0,89,79,65,0.00,40.00,4,1,7,0.00
2013-12-6,-2.0,-14.5,-19.0,-13.0,-19.4,-23.0,84,78,57,0.00,40.00,6,2,10,0.00
2013-12-7,6.0,-5.0,-12.0,-2.0,-10.4,-99.9,89,81,68,0.00,40.00,7,2,12,0.00
2013-12-8,5.0,-3.6,-11.0,-4.0,-8.8,-16.0,90,78,56,0.00,40.00,14,4,24,0.00
2013-12-9,13.0,2.8,-11.0,3.0,-6.4,-17.0,75,65,55,0.00,40.00,30,19,59,0.00
2013-12-10,18.0,7.7,4.0,3.0,0.1,-2.0,83,72,48,0.00,40.00,18,10,35,0.00
2013-12-11,26.0,15.5,7.0,8.0,2.3,-2.0,75,57,41,0.00,40.00,25,13,43,0.00
2013-12-12,36.0,28.8,23.0,11.0,9.3,8.0,54,44,31,0.00,40.00,25,20,43,0.00
2013-12-13,29.0,23.2,20.0,13.0,10.3,8.0,67,57,40,0.00,40.00,23,13,36,0.00
2013-12-14,30.0,25.0,20.0,20.0,13.4,-99.9,76,63,53,0.00,40.00,35,15,60,0.00
2013-12-15,39.0,32.6,27.0,20.0,12.5,6.0,75,45,27,0.00,40.00,36,20,65,0.00
2013-12-16,37.0,32.6,28.0,14.0,9.7,6.0,56,39,27,0.00,40.00,31,10,57,0.00
2013-12-17,43.0,34.8,29.0,13.0,11.2,9.0,49,38,26,0.00,40.00,23,16,43,0.00
2013-12-18,40.0,34.5,28.0,13.0,10.5,7.0,49,37,28,0.00,40.00,23,16,43,0.00
2013-12-19,29.0,12.7,2.0,20.0,7.3,-1.0,94,80,49,0.00,40.00,13,4,20,0.00
2013-12-20,21.0,13.0,5.0,6.0,1.0,-9.0,94,59,37,0.00,40.00,25,13,53,0.00
2013-12-21,23.0,14.4,8.0,12.0,6.0,-99.9,95,72,57,0.00,40.00,25,8,44,0.00
2013-12-22,23.0,15.2,9.0,13.0,9.1,6.0,93,77,63,0.00,40.00,11,5,26,0.00
2013-12-23,33.0,26.2,16.0,22.0,18.1,10.0,81,71,63,0.00,40.00,23,14,49,0.00
2013-12-24,30.0,21.5,17.0,27.0,11.2,1.0,98,65,34,0.00,40.00,20,12,39,0.00
2013-12-25,33.0,21.5,14.0,8.0,3.1,-4.0,72,47,21,0.00,40.00,21,10,55,0.01
2013-12-26,40.0,31.7,25.0,23.0,17.6,8.0,67,56,44,0.00,40.00,24,16,55,0.01
2013-12-27,44.0,38.6,35.0,23.0,12.1,1.0,56,34,23,0.00,40.00,25,19,40,0.00
2013-12-28,36.0,23.6,13.0,20.0,9.1,-99.9,95,61,19,0.00,40.00,14,6,26,0.00
2013-12-29,27.0,19.6,11.0,12.0,6.8,0.0,75,58,42,0.00,40.00,34,14,63,0.00
2013-12-30,32.0,23.8,20.0,19.0,12.7,10.0,79,63,42,0.00,40.00,23,11,48,0.00
2013-12-31,35.0,27.4,21.0,21.0,18.9,14.0,84,71,50,0.00,40.00,21,11,37,0.00
2014-1-1,27.0,20.4,15.0,16.0,11.6,-1.0,95,69,46,0.00,40.00,20,7,39,0.01
2014-1-2,32.0,27.1,24.0,21.0,12.9,-1.0,80,56,29,0.00,40.00,30,13,46,0.01